Bremen Airport


Codes: EDDW/BRE
Name: Bremen Airport
City: Bremen
Country: Germany
Elevation: 14 ft.
Wikipedia:

Photos at Bremen Airport


   Photos courtesy of SpottingLog. You can add your own sightings and photos by signing up for a free trial today.



No photos found.

Weather at Bremen Airport


Time (UTC)DescriptionTempratureWindCloud coverageVisibilityPressureHumidity
25-Jun-2024 15:00Clear Sky26°C9 mph, NE1%10000m1017hPa70%
25-Jun-2024 18:00Clear Sky24°C7 mph, NE1%10000m1016hPa76%
25-Jun-2024 21:00Clear Sky18°C7 mph, E0%10000m1016hPa80%
26-Jun-2024 00:00Clear Sky16°C7 mph, E0%10000m1015hPa92%
26-Jun-2024 03:00Clear Sky15°C7 mph, NE0%10000m1015hPa91%
26-Jun-2024 06:00Clear Sky19°C7 mph, E0%10000m1014hPa79%
26-Jun-2024 09:00Clear Sky24°C11 mph, E5%10000m1013hPa66%
26-Jun-2024 12:00Clear Sky27°C9 mph, E7%10000m1012hPa54%
26-Jun-2024 15:00Scattered Clouds28°C7 mph, NE28%10000m1011hPa53%
26-Jun-2024 18:00Broken Clouds24°C9 mph, NE56%10000m1010hPa77%
26-Jun-2024 21:00Broken Clouds21°C7 mph, NE55%10000m1010hPa83%
27-Jun-2024 00:00Scattered Clouds19°C4 mph, E27%10000m1009hPa92%
27-Jun-2024 03:00Clear Sky18°C4 mph, E0%10000m1008hPa92%
27-Jun-2024 06:00Light Rain22°C4 mph, SE12%10000m1008hPa83%
27-Jun-2024 09:00Broken Clouds25°C4 mph, SE75%10000m1007hPa73%
27-Jun-2024 12:00Light Rain28°C9 mph, S48%10000m1007hPa66%
27-Jun-2024 15:00Light Rain28°C9 mph, W95%10000m1007hPa64%
27-Jun-2024 18:00Light Rain24°C7 mph, NW54%4522m1007hPa83%
27-Jun-2024 21:00Light Rain18°C4 mph, NW7%10000m1009hPa95%
28-Jun-2024 00:00Scattered Clouds17°C2 mph, S37%10000m1009hPa92%
28-Jun-2024 03:00Light Rain18°C9 mph, SW100%10000m1009hPa93%
28-Jun-2024 06:00Light Rain16°C11 mph, SW97%10000m1011hPa89%
28-Jun-2024 09:00Clear Sky19°C16 mph, W6%10000m1013hPa63%
28-Jun-2024 12:00Few Clouds21°C13 mph, W21%10000m1015hPa57%
28-Jun-2024 15:00Overcast Clouds20°C11 mph, NW98%10000m1016hPa63%
28-Jun-2024 18:00Broken Clouds18°C9 mph, NW61%10000m1017hPa75%
28-Jun-2024 21:00Clear Sky13°C7 mph, N5%10000m1018hPa93%
29-Jun-2024 00:00Scattered Clouds12°C4 mph, E38%10000m1017hPa95%
29-Jun-2024 03:00Broken Clouds12°C4 mph, E54%10000m1017hPa95%
29-Jun-2024 06:00Scattered Clouds16°C4 mph, E49%10000m1016hPa84%
29-Jun-2024 09:00Broken Clouds21°C7 mph, SE61%10000m1014hPa66%
29-Jun-2024 12:00Broken Clouds24°C7 mph, SE79%10000m1011hPa54%
29-Jun-2024 15:00Overcast Clouds24°C4 mph, E100%10000m1008hPa67%
29-Jun-2024 18:00Light Rain22°C2 mph, N99%6943m1006hPa85%
29-Jun-2024 21:00Moderate Rain19°C2 mph, E100%10000m1004hPa96%
30-Jun-2024 00:00Light Rain19°C7 mph, SE100%7286m1003hPa99%
30-Jun-2024 03:00Moderate Rain18°C9 mph, SW100%7853m1000hPa98%
30-Jun-2024 06:00Moderate Rain18°C7 mph, SW100%4173m999hPa98%
30-Jun-2024 09:00Moderate Rain14°C18 mph, W100%10000m1003hPa96%
30-Jun-2024 12:00Light Rain13°C13 mph, SW100%10000m1006hPa93%